Time;durP1;ratioP1;P1;durP2;ratioP2;P2;SDS_P1;SDS_P2;PMS_P1;PMS_P2;Temp;Humidity;BMP_temperature;BMP_pressure;BME280_temperature;BME280_humidity;BME280_pressure;Samples;Min_cycle;Max_cycle;Signal;HPM_P1;HPM_P2
2021/04/14 00:01:23;;;;;;;2.20;1.33;;;;;;;7.02;82.88;95351.83;1740106;81;21284;-69
2021/04/14 00:03:51;;;;;;;2.13;1.60;;;;;;;6.91;83.25;95346.69;1740379;82;21130;-68
2021/04/14 00:06:18;;;;;;;1.57;1.40;;;;;;;6.87;83.24;95338.84;1740352;82;21137;-69
2021/04/14 00:08:45;;;;;;;4.70;1.70;;;;;;;6.81;83.60;95349.41;1740165;82;21260;-69
2021/04/14 00:11:20;;;;;;;3.37;1.47;;;;;;;6.74;83.69;95350.33;1740126;82;21300;-69
2021/04/14 00:13:48;;;;;;;2.40;1.57;;;;;;;6.70;83.60;95341.19;1740187;82;21694;-69
2021/04/14 00:16:22;;;;;;;1.80;1.57;;;;;;;6.66;83.79;95339.45;1739689;82;21299;-70
2021/04/14 00:18:50;;;;;;;1.90;1.57;;;;;;;6.62;83.87;95340.34;1740553;82;21145;-69
2021/04/14 00:21:22;;;;;;;2.87;1.50;;;;;;;6.52;84.69;95341.74;1740091;82;21303;-68
2021/04/14 00:23:51;;;;;;;2.70;2.00;;;;;;;6.57;84.08;95343.89;1740384;82;21273;-68
2021/04/14 00:26:18;;;;;;;3.43;1.90;;;;;;;6.61;84.18;95338.63;1740264;82;21568;-68
2021/04/14 00:28:46;;;;;;;4.13;1.90;;;;;;;6.62;84.16;95337.72;1739991;82;21312;-68
2021/04/14 00:31:14;;;;;;;1.73;1.63;;;;;;;6.65;84.22;95338.14;1740101;82;21324;-68
2021/04/14 00:33:43;;;;;;;2.30;1.90;;;;;;;6.67;84.22;95336.39;1740007;82;21287;-69
2021/04/14 00:36:11;;;;;;;1.70;1.60;;;;;;;6.73;84.12;95336.36;1740122;82;21288;-68
2021/04/14 00:38:41;;;;;;;2.07;1.60;;;;;;;6.82;84.02;95332.33;1740338;82;21292;-68
2021/04/14 00:41:15;;;;;;;2.70;1.77;;;;;;;6.79;83.95;95333.67;1740108;82;21186;-68
2021/04/14 00:43:43;;;;;;;1.67;1.50;;;;;;;6.84;83.85;95333.64;1740166;82;21129;-68
2021/04/14 00:46:11;;;;;;;1.67;1.50;;;;;;;6.92;83.82;95334.44;1740245;82;21706;-68
2021/04/14 00:48:40;;;;;;;1.87;1.50;;;;;;;6.98;83.60;95334.81;1740155;82;21110;-68
2021/04/14 00:51:10;;;;;;;3.17;1.90;;;;;;;7.03;83.31;95331.70;1740280;82;21703;-68
2021/04/14 00:53:38;;;;;;;2.43;1.67;;;;;;;6.98;83.02;95334.40;1698688;82;21133;-68
2021/04/14 00:56:07;;;;;;;2.13;1.77;;;;;;;7.04;83.07;95329.53;1750760;82;21106;-68
2021/04/14 00:58:34;;;;;;;4.27;2.20;;;;;;;7.10;82.97;95333.39;1751079;82;21137;-68
2021/04/14 01:01:03;;;;;;;6.53;3.37;;;;;;;7.12;82.84;95332.50;1751168;82;21137;-68
2021/04/14 01:03:35;;;;;;;3.80;2.20;;;;;;;7.03;82.81;95327.77;1750503;82;21579;-68
2021/04/14 01:06:14;;;;;;;5.50;3.07;;;;;;;6.90;82.98;95326.60;1750783;82;21572;-68
2021/04/14 01:08:41;;;;;;;4.10;3.13;;;;;;;6.84;82.96;95321.84;1749871;82;21133;-69
2021/04/14 01:11:12;;;;;;;4.37;2.77;;;;;;;6.79;83.11;95317.94;1750643;82;21181;-69
2021/04/14 01:13:39;;;;;;;3.27;2.20;;;;;;;6.66;83.39;95321.10;1750868;82;21146;-69
2021/04/14 01:16:07;;;;;;;3.07;2.20;;;;;;;6.60;83.40;95323.78;1750554;82;21453;-69
2021/04/14 01:18:37;;;;;;;3.40;2.00;;;;;;;6.48;83.57;95323.42;1750732;82;21141;-68
2021/04/14 01:21:19;;;;;;;2.47;2.03;;;;;;;6.43;83.37;95321.72;1750630;82;21599;-69
2021/04/14 01:23:46;;;;;;;2.20;1.90;;;;;;;6.33;83.59;95329.22;1750664;82;21121;-69
2021/04/14 01:26:14;;;;;;;2.87;2.03;;;;;;;6.18;84.00;95319.70;1750732;82;21153;-68
2021/04/14 01:28:46;;;;;;;1.83;1.13;;;;;;;6.00;84.69;95323.30;1750665;82;21579;-69
2021/04/14 01:31:18;;;;;;;2.70;1.75;;;;;;;5.90;85.02;95324.19;1750662;82;21168;-68
2021/04/14 01:33:46;;;;;;;3.37;2.17;;;;;;;5.83;85.46;95320.72;1750695;82;21120;-68
2021/04/14 01:36:14;;;;;;;2.83;1.70;;;;;;;5.82;85.34;95324.20;1750661;82;21149;-69
2021/04/14 01:38:42;;;;;;;2.87;1.57;;;;;;;5.82;85.36;95326.81;1750569;82;21137;-68
2021/04/14 01:41:09;;;;;;;5.70;1.70;;;;;;;5.79;85.21;95322.91;1751037;82;21122;-68
2021/04/14 01:43:37;;;;;;;1.30;1.07;;;;;;;5.75;85.31;95323.38;1750643;82;21169;-68
2021/04/14 01:46:05;;;;;;;1.40;1.10;;;;;;;5.70;85.22;95325.14;1750668;82;21184;-69
2021/04/14 01:48:32;;;;;;;2.07;0.90;;;;;;;5.67;85.33;95325.58;1750704;82;21110;-68
2021/04/14 01:51:01;;;;;;;1.67;0.70;;;;;;;5.67;85.18;95330.39;1750552;82;21129;-68
2021/04/14 01:53:29;;;;;;;1.47;0.60;;;;;;;5.59;85.08;95320.37;1753304;81;21172;-68
2021/04/14 01:55:56;;;;;;;3.00;0.90;;;;;;;5.61;85.03;95326.03;1754125;82;21141;-68
2021/04/14 01:58:25;;;;;;;1.10;0.87;;;;;;;5.67;84.75;95323.85;1754049;81;21162;-68
2021/04/14 02:00:57;;;;;;;0.60;0.60;;;;;;;5.61;84.62;95319.94;1754092;81;21157;-68
2021/04/14 02:03:29;;;;;;;0.90;0.60;;;;;;;5.54;84.31;95320.83;1754110;82;21557;-69
2021/04/14 02:05:58;;;;;;;0.73;0.40;;;;;;;5.46;84.36;95312.14;1754226;81;21124;-68
2021/04/14 02:08:25;;;;;;;0.70;0.50;;;;;;;5.42;84.41;95316.53;1754039;82;21177;-68
2021/04/14 02:10:54;;;;;;;0.43;0.43;;;;;;;5.40;84.39;95313.91;1754135;81;21138;-69
2021/04/14 02:13:34;;;;;;;0.47;0.40;;;;;;;5.42;84.23;95315.22;1753678;81;21144;-69
2021/04/14 02:16:04;;;;;;;0.40;0.40;;;;;;;5.41;84.05;95316.08;1754318;82;21102;-68
2021/04/14 02:18:31;;;;;;;0.20;0.20;;;;;;;5.38;83.88;95312.16;1754005;81;21133;-69
2021/04/14 02:21:00;;;;;;;1.37;0.30;;;;;;;5.34;83.80;95317.86;1754469;82;21306;-68
2021/04/14 02:23:33;;;;;;;0.73;0.30;;;;;;;5.24;83.89;95310.91;1754076;82;21189;-69
2021/04/14 02:26:06;;;;;;;0.20;0.20;;;;;;;5.21;83.86;95314.81;1754003;82;21119;-69
2021/04/14 02:28:34;;;;;;;0.65;0.30;;;;;;;5.13;84.13;95314.84;1754410;82;21121;-68
2021/04/14 02:31:03;;;;;;;0.63;0.37;;;;;;;5.09;84.04;95313.53;1754048;82;21114;-69
2021/04/14 02:33:31;;;;;;;0.20;0.20;;;;;;;5.02;84.24;95315.31;1753917;82;21536;-69
2021/04/14 02:36:00;;;;;;;0.50;0.23;;;;;;;4.96;84.12;95309.66;1754172;82;21190;-69
2021/04/14 02:38:27;;;;;;;4.00;0.40;;;;;;;4.94;83.99;95307.92;1754205;82;21559;-68
2021/04/14 02:40:56;;;;;;;1.07;0.20;;;;;;;4.95;83.80;95305.73;1754008;82;21133;-68
2021/04/14 02:43:23;;;;;;;0.40;0.20;;;;;;;4.97;83.58;95314.45;1754474;81;21270;-68
2021/04/14 02:45:51;;;;;;;0.20;0.20;;;;;;;4.90;83.40;95312.70;1754232;82;21173;-68
2021/04/14 02:48:19;;;;;;;0.37;0.30;;;;;;;4.85;83.16;95308.78;1754192;82;21142;-68
2021/04/14 02:50:47;;;;;;;0.30;0.30;;;;;;;4.81;83.11;95310.09;1754202;81;21153;-68
2021/04/14 02:53:16;;;;;;;0.20;0.17;;;;;;;4.80;83.16;95309.23;1754174;81;21152;-68
2021/04/14 02:55:43;;;;;;;0.20;0.20;;;;;;;4.71;83.06;95302.28;1754086;82;21117;-68
2021/04/14 02:58:10;;;;;;;0.30;0.20;;;;;;;4.66;83.06;95310.56;1754086;82;21140;-68
2021/04/14 03:00:38;;;;;;;0.30;0.20;;;;;;;4.64;82.97;95308.81;1754075;82;21140;-68
2021/04/14 03:03:05;;;;;;;0.43;0.23;;;;;;;4.53;82.96;95307.05;1754271;81;21136;-69
2021/04/14 03:05:35;;;;;;;0.30;0.30;;;;;;;4.52;82.78;95309.23;1754441;82;21141;-68
2021/04/14 03:08:04;;;;;;;0.30;0.30;;;;;;;4.44;83.41;95312.73;1753965;81;21149;-69
2021/04/14 03:10:32;;;;;;;2.00;0.30;;;;;;;4.45;83.37;95313.16;1754111;82;21587;-69
2021/04/14 03:13:03;;;;;;;0.50;0.20;;;;;;;4.40;83.51;95307.92;1754172;82;21133;-68
2021/04/14 03:15:39;;;;;;;0.28;0.20;;;;;;;4.31;83.19;95307.50;1726748;82;21580;-69
2021/04/14 03:18:09;;;;;;;0.60;0.10;;;;;;;4.27;83.17;95304.43;1754300;81;21117;-68
2021/04/14 03:20:37;;;;;;;0.77;0.20;;;;;;;4.17;83.88;95309.20;1754275;81;21098;-68
2021/04/14 03:23:07;;;;;;;0.20;0.20;;;;;;;4.22;83.85;95313.14;1754323;82;21567;-69
2021/04/14 03:25:34;;;;;;;0.40;0.23;;;;;;;4.18;83.78;95308.77;1754437;81;21149;-68
2021/04/14 03:28:04;;;;;;;0.10;0.10;;;;;;;4.18;83.91;95308.33;1754406;82;21128;-68
2021/04/14 03:30:34;;;;;;;0.40;0.40;;;;;;;4.13;84.13;95315.28;1754465;81;21173;-68
2021/04/14 03:33:02;;;;;;;0.77;0.50;;;;;;;4.15;84.04;95312.69;1754130;81;21150;-68
2021/04/14 03:35:30;;;;;;;0.30;0.30;;;;;;;4.11;83.86;95313.99;1754287;82;21621;-68
2021/04/14 03:38:00;;;;;;;0.20;0.20;;;;;;;4.12;83.86;95313.55;1754195;82;21611;-68
2021/04/14 03:40:29;;;;;;;0.30;0.30;;;;;;;4.07;83.92;95320.06;1754241;81;21138;-68
2021/04/14 03:42:57;;;;;;;2.00;0.30;;;;;;;4.07;83.53;95317.45;1754429;82;21110;-68
2021/04/14 03:45:34;;;;;;;0.33;0.20;;;;;;;4.09;83.62;95318.34;1754324;81;21599;-68
2021/04/14 03:47:59;;;;;;;1.07;0.33;;;;;;;4.04;83.50;95313.98;1754067;82;21168;-69
2021/04/14 03:50:29;;;;;;;0.30;0.20;;;;;;;4.02;83.65;95319.19;1754077;82;21122;-68
2021/04/14 03:53:22;;;;;;;0.20;0.20;;;;;;;4.00;83.89;95314.39;1754183;81;21182;-68
2021/04/14 03:55:55;;;;;;;1.77;0.30;;;;;;;3.99;83.56;95317.02;1753926;82;21219;-70
2021/04/14 03:58:24;;;;;;;0.63;0.20;;;;;;;3.94;83.47;95313.08;1754262;82;21552;-69
2021/04/14 04:00:57;;;;;;;0.70;0.40;;;;;;;3.93;83.73;95316.98;1754376;82;21114;-68
2021/04/14 04:03:26;;;;;;;1.52;0.85;;;;;;;3.83;83.42;95322.20;1754245;81;21120;-69
2021/04/14 04:05:54;;;;;;;2.03;1.30;;;;;;;3.77;83.70;95321.30;1754219;81;21138;-69
2021/04/14 04:08:22;;;;;;;1.50;0.60;;;;;;;3.78;83.52;95321.31;1754498;81;21137;-68
2021/04/14 04:10:50;;;;;;;1.30;0.80;;;;;;;3.72;83.51;95329.11;1754145;82;21177;-68
2021/04/14 04:13:18;;;;;;;2.70;0.80;;;;;;;3.64;83.62;95323.86;1754309;82;21106;-68
2021/04/14 04:15:46;;;;;;;0.50;0.50;;;;;;;3.57;83.27;95322.53;1754366;82;21153;-69
2021/04/14 04:18:14;;;;;;;0.57;0.50;;;;;;;3.53;83.15;95332.50;1753780;81;21564;-69
2021/04/14 04:20:43;;;;;;;0.90;0.57;;;;;;;3.39;83.21;95331.14;1754133;82;21580;-68
2021/04/14 04:23:12;;;;;;;0.60;0.57;;;;;;;3.35;82.87;95336.80;1754449;81;21173;-68
2021/04/14 04:25:40;;;;;;;0.97;0.40;;;;;;;3.20;83.26;95333.67;1754212;82;21599;-68
2021/04/14 04:28:08;;;;;;;0.80;0.70;;;;;;;3.15;83.66;95334.48;1754788;81;21659;-68
2021/04/14 04:30:37;;;;;;;1.03;0.70;;;;;;;3.13;83.74;95337.54;1754252;82;21137;-68
2021/04/14 04:33:07;;;;;;;1.03;0.63;;;;;;;3.10;83.54;95347.52;1753890;81;21138;-68
2021/04/14 04:35:35;;;;;;;0.70;0.60;;;;;;;3.02;83.81;95345.27;1754179;82;21138;-68
2021/04/14 04:38:03;;;;;;;2.27;0.70;;;;;;;3.00;83.67;95347.02;1754162;81;21160;-68
2021/04/14 04:40:31;;;;;;;0.43;0.43;;;;;;;3.01;83.79;95350.05;1754064;81;21595;-68
2021/04/14 04:42:59;;;;;;;0.93;0.20;;;;;;;3.00;83.24;95347.88;1754213;82;21152;-68
2021/04/14 04:45:30;;;;;;;0.53;0.43;;;;;;;2.95;82.80;95357.41;1754341;82;21137;-68
2021/04/14 04:47:58;;;;;;;0.80;0.53;;;;;;;2.90;82.66;95357.80;1754084;82;21572;-69
2021/04/14 04:50:29;;;;;;;0.57;0.37;;;;;;;2.80;82.68;95362.07;1754532;82;21303;-68
2021/04/14 04:53:01;;;;;;;0.40;0.30;;;;;;;2.76;82.59;95361.59;1728195;81;21156;-68
2021/04/14 04:55:29;;;;;;;0.40;0.37;;;;;;;2.62;82.88;95368.85;1761825;81;21121;-68
2021/04/14 04:57:59;;;;;;;3.27;0.97;;;;;;;2.65;82.90;95371.52;1760847;81;21128;-68
2021/04/14 05:00:27;;;;;;;1.90;0.80;;;;;;;2.57;82.93;95365.80;1762015;81;21117;-68
2021/04/14 05:02:55;;;;;;;1.57;1.03;;;;;;;2.53;82.75;95367.06;1734739;81;21136;-68
2021/04/14 05:05:27;;;;;;;1.50;1.10;;;;;;;2.50;82.84;95381.36;1761821;81;21141;-68
2021/04/14 05:07:55;;;;;;;5.93;2.90;;;;;;;2.42;82.85;95382.59;1762038;81;21121;-68
2021/04/14 05:10:23;;;;;;;2.33;1.20;;;;;;;2.37;82.93;95381.69;1761962;81;21114;-69
2021/04/14 05:12:53;;;;;;;2.93;1.50;;;;;;;2.24;83.36;95387.16;1762125;81;21671;-68
2021/04/14 05:15:26;;;;;;;3.53;1.40;;;;;;;2.22;83.24;95383.70;1761996;81;21129;-68
2021/04/14 05:17:54;;;;;;;1.40;0.90;;;;;;;2.16;83.28;95383.63;1762050;81;21276;-68
2021/04/14 05:20:23;;;;;;;1.87;1.00;;;;;;;2.11;83.28;95390.51;1761866;81;21291;-68
2021/04/14 05:22:50;;;;;;;2.67;1.07;;;;;;;2.05;83.63;95386.12;1761858;81;21136;-68
2021/04/14 05:25:24;;;;;;;1.10;0.67;;;;;;;2.04;83.57;95389.99;1761885;81;21594;-68
2021/04/14 05:27:54;;;;;;;0.98;0.70;;;;;;;2.01;83.77;95386.06;1762246;81;21136;-68
2021/04/14 05:30:22;;;;;;;2.30;0.80;;;;;;;2.02;83.72;95387.39;1761887;81;21141;-68
2021/04/14 05:32:50;;;;;;;1.53;0.80;;;;;;;1.93;84.04;95381.64;1761993;81;21749;-68
2021/04/14 05:35:18;;;;;;;1.07;0.83;;;;;;;1.94;84.00;95387.72;1761733;81;21267;-69
2021/04/14 05:37:46;;;;;;;0.97;0.63;;;;;;;1.93;83.95;95388.58;1761885;81;21263;-68
2021/04/14 05:40:15;;;;;;;2.27;1.33;;;;;;;1.87;83.98;95384.19;1762059;81;21602;-68
2021/04/14 05:42:46;;;;;;;0.90;0.53;;;;;;;1.84;84.14;95390.66;1761835;81;21733;-68
2021/04/14 05:45:19;;;;;;;0.90;0.77;;;;;;;1.78;84.28;95389.71;1761912;81;21251;-68
2021/04/14 05:47:47;;;;;;;1.67;0.57;;;;;;;1.82;84.25;95394.11;1761693;81;21157;-68
2021/04/14 05:50:19;;;;;;;0.50;0.50;;;;;;;1.83;84.23;95386.73;1761533;81;21271;-68
2021/04/14 05:52:47;;;;;;;0.70;0.60;;;;;;;1.78;84.26;95384.51;1762109;81;21137;-68
2021/04/14 05:55:16;;;;;;;0.83;0.50;;;;;;;1.79;84.32;95387.54;1740271;82;21149;-68
2021/04/14 05:57:43;;;;;;;1.73;0.90;;;;;;;1.68;84.50;95384.82;1740050;82;21730;-68
2021/04/14 06:00:14;;;;;;;1.20;1.00;;;;;;;1.66;84.37;95378.72;1740137;82;21726;-68
2021/04/14 06:02:42;;;;;;;1.77;1.27;;;;;;;1.58;84.76;95383.83;1740104;82;21687;-68
2021/04/14 06:05:15;;;;;;;1.27;0.90;;;;;;;1.51;85.22;95380.70;1740038;82;21304;-68
2021/04/14 06:07:43;;;;;;;1.63;0.80;;;;;;;1.49;85.30;95384.60;1740274;82;21098;-69
2021/04/14 06:10:13;;;;;;;3.60;1.10;;;;;;;1.52;85.18;95382.47;1740550;82;21133;-68
2021/04/14 06:12:41;;;;;;;2.40;1.23;;;;;;;1.53;85.38;95385.50;1740045;82;21728;-68
2021/04/14 06:15:13;;;;;;;1.67;1.07;;;;;;;1.59;85.18;95384.30;1740177;82;21158;-68
2021/04/14 06:17:41;;;;;;;1.33;0.90;;;;;;;1.55;85.29;95385.53;1740240;81;21447;-68
2021/04/14 06:20:13;;;;;;;1.37;0.93;;;;;;;1.57;85.17;95388.59;1740025;82;21189;-68
2021/04/14 06:22:42;;;;;;;1.57;1.00;;;;;;;1.60;85.35;95382.13;1740080;82;21130;-68
2021/04/14 06:25:15;;;;;;;1.63;1.00;;;;;;;1.70;85.28;95385.72;1740111;82;21303;-68
2021/04/14 06:30:13;;;;;;;2.00;1.17;;;;;;;1.63;85.06;95386.05;1740086;82;21161;-70
2021/04/14 06:32:41;;;;;;;0.83;0.53;;;;;;;1.67;84.89;95390.45;1740090;82;21106;-70
2021/04/14 06:35:10;;;;;;;1.77;0.80;;;;;;;1.70;84.68;95393.52;1740003;82;21133;-70
2021/04/14 06:37:38;;;;;;;3.50;1.83;;;;;;;1.66;84.83;95386.52;1740463;82;21154;-70
2021/04/14 06:40:32;;;;;;;1.37;1.00;;;;;;;1.67;84.79;95393.05;1740092;82;21142;-70
2021/04/14 06:43:27;;;;;;;2.10;1.40;;;;;;;1.75;84.77;95395.75;1717072;82;21102;-70
2021/04/14 06:45:58;;;;;;;3.27;1.10;;;;;;;1.79;84.50;95396.64;1739728;82;21125;-71
2021/04/14 06:48:58;;;;;;;2.87;1.33;;;;;;;1.74;84.53;95399.22;1740239;82;21252;-70
2021/04/14 06:51:45;;;;;;;1.20;0.97;;;;;;;1.74;84.68;95397.92;1739728;82;21612;-71
2021/04/14 06:54:45;;;;;;;1.57;0.90;;;;;;;1.77;84.67;95400.98;1746266;81;21114;-70
2021/04/14 06:57:36;;;;;;;1.37;0.67;;;;;;;1.73;84.64;95398.31;1754307;82;21121;-70
2021/04/14 07:00:22;;;;;;;1.07;0.60;;;;;;;1.72;84.87;95396.58;1753748;82;21606;-70
2021/04/14 07:03:09;;;;;;;1.80;1.33;;;;;;;1.62;84.92;95396.03;1754095;81;21149;-70
2021/04/14 07:05:44;;;;;;;2.10;1.10;;;;;;;1.76;84.88;95395.31;1753668;82;21144;-70
2021/04/14 07:08:29;;;;;;;2.40;1.10;;;;;;;1.77;84.83;95397.95;1754176;82;21531;-70
2021/04/14 07:11:01;;;;;;;1.13;0.80;;;;;;;1.81;84.87;95401.02;1738293;82;21593;-70
2021/04/14 07:13:34;;;;;;;2.73;1.10;;;;;;;1.86;84.58;95398.47;1754033;81;21145;-71
2021/04/14 07:16:13;;;;;;;1.35;0.70;;;;;;;1.90;84.60;95403.73;1754607;82;21109;-68
2021/04/14 07:18:58;;;;;;;1.70;0.67;;;;;;;1.92;84.47;95408.53;1752960;82;21133;-70
2021/04/14 07:21:34;;;;;;;2.87;1.40;;;;;;;2.01;84.06;95407.75;1726834;82;21098;-70
2021/04/14 07:24:38;;;;;;;2.87;2.00;;;;;;;2.09;83.79;95402.63;1754261;81;21137;-70
2021/04/14 07:27:30;;;;;;;2.80;1.37;;;;;;;2.06;83.79;95405.20;1754269;81;21567;-70
2021/04/14 07:30:11;;;;;;;1.07;0.70;;;;;;;2.08;84.00;95408.27;1754054;82;21563;-70
2021/04/14 07:33:06;;;;;;;2.57;1.70;;;;;;;2.01;83.92;95417.29;1754193;82;21090;-70
2021/04/14 07:35:38;;;;;;;2.00;1.00;;;;;;;2.10;83.80;95401.79;1753881;82;21110;-70
2021/04/14 07:38:20;;;;;;;2.40;1.70;;;;;;;2.01;83.90;95408.19;1754302;82;21149;-70
2021/04/14 07:41:10;;;;;;;2.40;1.60;;;;;;;2.01;84.50;95412.95;1754278;82;21117;-70
2021/04/14 07:43:57;;;;;;;1.50;0.63;;;;;;;1.98;84.27;95412.92;1753983;82;21126;-70
2021/04/14 07:46:25;;;;;;;1.50;1.00;;;;;;;1.94;84.65;95413.73;1727449;82;21161;-70
2021/04/14 07:48:57;;;;;;;2.60;1.93;;;;;;;1.97;84.66;95416.39;1753952;82;21141;-70
2021/04/14 07:51:28;;;;;;;1.90;1.17;;;;;;;2.02;84.51;95409.52;1754146;81;21127;-70
2021/04/14 07:54:11;;;;;;;2.00;0.90;;;;;;;2.05;84.61;95412.58;1753933;82;21164;-70
2021/04/14 07:56:55;;;;;;;0.90;0.70;;;;;;;2.12;84.51;95409.19;1754090;81;21145;-70
2021/04/14 07:59:30;;;;;;;3.53;1.00;;;;;;;2.12;84.45;95413.97;1754459;82;21144;-70
2021/04/14 08:02:06;;;;;;;1.00;0.90;;;;;;;2.21;83.96;95408.41;1754269;81;21129;-68
2021/04/14 08:04:38;;;;;;;1.30;0.87;;;;;;;2.26;84.09;95412.79;1754087;82;21173;-68
2021/04/14 08:07:18;;;;;;;1.13;0.80;;;;;;;2.36;84.03;95412.02;1754216;82;21121;-68
2021/04/14 08:10:13;;;;;;;1.27;1.10;;;;;;;2.46;84.18;95408.22;1754162;82;21275;-70
2021/04/14 08:12:59;;;;;;;3.17;1.90;;;;;;;2.53;83.94;95405.69;1754237;82;21568;-70
2021/04/14 08:15:45;;;;;;;2.30;1.37;;;;;;;2.60;83.08;95404.03;1754298;81;21125;-70
2021/04/14 08:18:24;;;;;;;2.83;1.17;;;;;;;2.55;82.69;95402.67;1754225;82;21137;-70
2021/04/14 08:21:16;;;;;;;2.33;1.20;;;;;;;2.61;82.79;95405.75;1754618;82;21121;-70
2021/04/14 08:24:06;;;;;;;3.80;1.57;;;;;;;2.43;82.92;95399.95;1753032;82;21564;-71
2021/04/14 08:26:36;;;;;;;2.57;1.10;;;;;;;2.44;82.81;95408.20;1754187;82;21148;-70
2021/04/14 08:29:15;;;;;;;2.40;1.10;;;;;;;2.40;83.45;95411.64;1754399;81;21098;-70
2021/04/14 08:31:45;;;;;;;3.37;1.60;;;;;;;2.44;83.57;95408.62;1754032;82;21150;-70
2021/04/14 08:34:18;;;;;;;2.40;1.57;;;;;;;2.39;83.11;95405.98;1754328;82;21149;-70
2021/04/14 08:36:57;;;;;;;1.07;0.98;;;;;;;2.31;82.76;95410.24;1754250;82;21125;-70
2021/04/14 08:39:42;;;;;;;3.23;1.67;;;;;;;2.24;83.44;95413.20;1754285;81;21568;-70
2021/04/14 08:42:25;;;;;;;5.03;3.13;;;;;;;2.25;83.61;95410.20;1754163;81;21177;-70
2021/04/14 08:45:10;;;;;;;2.83;1.80;;;;;;;2.25;83.81;95408.89;1754293;82;21118;-71
2021/04/14 08:47:46;;;;;;;1.57;1.00;;;;;;;2.29;83.93;95408.95;1754190;82;21556;-70
2021/04/14 08:50:28;;;;;;;3.53;1.10;;;;;;;2.33;83.89;95408.53;1754359;82;21125;-70
2021/04/14 08:53:00;;;;;;;1.13;0.90;;;;;;;2.34;83.89;95408.56;1754092;82;21624;-70
2021/04/14 08:55:28;;;;;;;1.60;0.87;;;;;;;2.41;83.67;95402.09;1722690;82;21157;-70
2021/04/14 08:57:59;;;;;;;2.23;1.10;;;;;;;2.44;83.68;95402.12;1750588;82;21142;-70
2021/04/14 09:00:27;;;;;;;0.90;0.80;;;;;;;2.51;83.72;95400.89;1750355;81;21133;-70
2021/04/14 09:03:03;;;;;;;1.20;0.90;;;;;;;2.57;83.75;95396.16;1750527;82;21614;-70
2021/04/14 09:05:32;;;;;;;1.30;0.90;;;;;;;2.62;82.86;95399.70;1750411;82;21102;-70
2021/04/14 09:08:00;;;;;;;2.20;1.40;;;;;;;2.55;82.78;95399.20;1750639;82;21144;-70
2021/04/14 09:10:42;;;;;;;2.10;1.40;;;;;;;2.53;83.60;95397.87;1750425;81;21267;-70
2021/04/14 09:13:12;;;;;;;1.50;1.00;;;;;;;2.58;83.52;95394.02;1748655;82;21264;-70
2021/04/14 09:15:54;;;;;;;2.33;1.43;;;;;;;2.63;83.55;95390.16;1750614;81;21571;-70
2021/04/14 09:18:35;;;;;;;1.80;1.07;;;;;;;2.56;83.37;95393.98;1750495;82;21550;-70
2021/04/14 09:21:21;;;;;;;1.50;1.20;;;;;;;2.57;83.37;95398.36;1750258;82;21259;-70
2021/04/14 09:24:02;;;;;;;1.37;0.97;;;;;;;2.70;83.50;95391.95;1750412;82;21125;-70
2021/04/14 09:26:37;;;;;;;1.10;1.00;;;;;;;2.80;83.78;95392.03;1750795;82;21125;-70
2021/04/14 09:29:33;;;;;;;2.73;1.40;;;;;;;2.95;83.50;95389.12;1750257;82;21548;-70
2021/04/14 09:32:11;;;;;;;1.07;0.60;;;;;;;3.09;83.40;95386.16;1746094;82;21213;-70
2021/04/14 09:34:48;;;;;;;2.70;0.93;;;;;;;3.23;83.34;95386.27;1750282;82;21260;-70
2021/04/14 09:37:23;;;;;;;1.67;1.37;;;;;;;3.35;82.76;95390.25;1750662;82;21094;-70
2021/04/14 09:39:57;;;;;;;1.43;1.00;;;;;;;3.43;82.14;95391.16;1750416;82;21280;-70
2021/04/14 09:42:41;;;;;;;1.53;1.13;;;;;;;3.48;81.63;95387.28;1750289;82;21137;-68
2021/04/14 09:45:29;;;;;;;2.13;1.50;;;;;;;3.54;81.26;95385.99;1750584;82;21117;-68
2021/04/14 09:48:01;;;;;;;2.23;1.60;;;;;;;3.60;81.10;95376.02;1750314;81;21272;-70
2021/04/14 09:50:34;;;;;;;2.67;2.10;;;;;;;3.63;80.76;95370.84;1750292;82;21153;-68
2021/04/14 09:53:10;;;;;;;1.70;1.00;;;;;;;3.68;80.74;95378.25;1750139;81;21272;-68
2021/04/14 09:55:51;;;;;;;4.27;1.77;;;;;;;3.58;80.73;95380.34;1741680;81;21165;-68
2021/04/14 09:58:30;;;;;;;2.73;1.80;;;;;;;3.66;80.76;95379.53;1740078;82;21118;-68
2021/04/14 10:01:21;;;;;;;3.10;1.47;;;;;;;3.69;80.94;95386.06;1740181;82;21699;-68
2021/04/14 10:03:58;;;;;;;3.97;2.00;;;;;;;3.69;80.67;95383.89;1740192;82;21123;-70
2021/04/14 10:06:27;;;;;;;2.13;1.30;;;;;;;3.74;80.57;95371.73;1740071;82;21715;-68
2021/04/14 10:09:03;;;;;;;2.50;1.07;;;;;;;3.80;80.81;95371.75;1740560;82;21116;-69
2021/04/14 10:11:39;;;;;;;2.40;1.60;;;;;;;3.79;80.61;95372.63;1740150;82;21292;-68
2021/04/14 10:14:23;;;;;;;3.33;1.63;;;;;;;3.81;79.90;95373.95;1740434;82;21122;-68
2021/04/14 10:16:54;;;;;;;1.63;1.30;;;;;;;3.79;80.44;95380.45;1739901;82;21296;-68
2021/04/14 10:19:30;;;;;;;4.30;1.80;;;;;;;3.89;80.41;95375.71;1738967;82;21130;-68
2021/04/14 10:22:12;;;;;;;5.33;2.83;;;;;;;3.82;80.16;95377.85;1739939;82;21280;-68
2021/04/14 10:24:40;;;;;;;1.07;0.80;;;;;;;3.88;80.97;95375.28;1739998;82;21272;-68
2021/04/14 10:27:10;;;;;;;5.37;2.93;;;;;;;3.99;80.95;95367.92;1740149;82;21714;-68
2021/04/14 10:29:41;;;;;;;6.40;3.40;;;;;;;4.18;80.89;95377.52;1740225;82;21288;-68
2021/04/14 10:32:22;;;;;;;8.83;4.10;;;;;;;4.23;80.43;95373.19;1740249;82;21284;-68
2021/04/14 10:34:51;;;;;;;2.53;1.83;;;;;;;4.26;79.09;95375.83;1740015;82;21300;-68
2021/04/14 10:37:24;;;;;;;6.33;4.00;;;;;;;4.31;78.83;95375.41;1739916;82;21161;-68
2021/04/14 10:39:53;;;;;;;2.37;1.77;;;;;;;4.44;78.84;95376.73;1740303;82;21288;-68
2021/04/14 10:42:27;;;;;;;3.87;2.00;;;;;;;4.51;79.54;95371.52;1740129;82;21754;-68
2021/04/14 10:45:08;;;;;;;2.40;1.80;;;;;;;4.58;78.27;95368.90;1740073;82;21708;-68
2021/04/14 10:47:39;;;;;;;2.57;1.70;;;;;;;4.55;77.36;95366.71;1740238;82;21090;-68
2021/04/14 10:50:22;;;;;;;2.27;1.53;;;;;;;4.70;78.01;95363.24;1740250;82;21267;-68
2021/04/14 10:53:06;;;;;;;4.60;1.03;;;;;;;4.77;76.40;95370.66;1739881;81;21142;-68
2021/04/14 10:55:41;;;;;;;2.70;1.80;;;;;;;4.83;75.75;95367.17;1747568;81;21207;-68
2021/04/14 10:58:16;;;;;;;3.47;1.67;;;;;;;4.87;76.36;95364.56;1754325;82;21130;-68
2021/04/14 11:00:50;;;;;;;3.00;1.87;;;;;;;4.94;75.68;95372.84;1754275;81;21548;-68
2021/04/14 11:03:21;;;;;;;5.53;3.37;;;;;;;5.09;76.38;95373.68;1754366;82;21118;-68
2021/04/14 11:05:57;;;;;;;3.17;1.77;;;;;;;5.20;75.28;95376.73;1754120;81;21548;-68
2021/04/14 11:08:27;;;;;;;5.37;2.27;;;;;;;5.09;73.76;95364.53;1754075;81;21122;-68
2021/04/14 11:10:58;;;;;;;4.87;2.40;;;;;;;5.26;75.21;95370.61;1754024;82;21161;-68
2021/04/14 11:13:29;;;;;;;2.20;1.10;;;;;;;5.34;74.79;95375.83;1754070;82;21588;-68
2021/04/14 11:15:59;;;;;;;1.63;1.00;;;;;;;5.28;73.74;95375.84;1726431;82;21129;-68
2021/04/14 11:18:36;;;;;;;1.40;0.90;;;;;;;5.14;72.27;95378.47;1726803;82;21137;-68
2021/04/14 11:21:09;;;;;;;1.63;0.90;;;;;;;5.10;73.62;95385.46;1753945;82;21125;-68
2021/04/14 11:23:39;;;;;;;1.17;0.97;;;;;;;5.11;74.01;95398.09;1754366;82;21152;-68
2021/04/14 11:26:20;;;;;;;1.33;1.00;;;;;;;5.19;74.49;95383.25;1754006;82;21125;-68
2021/04/14 11:28:51;;;;;;;1.03;0.50;;;;;;;5.19;73.10;95391.10;1754074;82;21588;-68
2021/04/14 11:31:41;;;;;;;1.83;1.13;;;;;;;5.11;73.43;95375.86;1754039;81;21158;-68
2021/04/14 11:34:25;;;;;;;2.03;0.90;;;;;;;5.11;73.36;95377.17;1754178;82;21556;-68
2021/04/14 11:37:04;;;;;;;1.00;0.50;;;;;;;5.05;74.15;95380.67;1754224;82;21129;-68
2021/04/14 11:39:59;;;;;;;0.53;0.37;;;;;;;5.06;73.41;95385.02;1754341;82;21587;-68
2021/04/14 11:42:53;;;;;;;1.50;0.77;;;;;;;5.22;74.20;95387.20;1752996;82;21595;-68
2021/04/14 11:45:38;;;;;;;1.80;1.30;;;;;;;5.39;73.97;95387.15;1754516;82;21272;-68
2021/04/14 11:48:14;;;;;;;0.57;0.57;;;;;;;5.32;73.90;95383.70;1754244;81;21121;-68
2021/04/14 11:50:46;;;;;;;0.40;0.30;;;;;;;5.40;72.40;95383.23;1751406;82;21158;-69
2021/04/14 11:53:25;;;;;;;0.87;0.73;;;;;;;5.39;71.73;95392.38;1754471;82;21121;-68
2021/04/14 11:55:56;;;;;;;0.50;0.50;;;;;;;5.40;71.75;95393.70;1746340;81;21690;-68
2021/04/14 11:58:38;;;;;;;2.07;0.90;;;;;;;5.18;71.56;95400.70;1740288;82;21252;-68
2021/04/14 12:01:11;;;;;;;0.83;0.50;;;;;;;5.18;72.38;95402.00;1740484;82;21146;-68
2021/04/14 12:03:41;;;;;;;0.35;0.35;;;;;;;5.11;72.43;95403.32;1738729;82;21141;-68
2021/04/14 12:06:09;;;;;;;1.00;0.90;;;;;;;5.07;74.05;95392.45;1740342;82;21604;-68
2021/04/14 12:08:36;;;;;;;0.73;0.50;;;;;;;5.08;73.12;95394.17;1740477;82;21146;-68
2021/04/14 12:11:08;;;;;;;1.07;0.70;;;;;;;5.02;73.01;95400.29;1740146;81;21284;-68
2021/04/14 12:13:35;;;;;;;2.03;1.13;;;;;;;4.93;72.76;95402.45;1739139;82;21271;-68